createdAt,value
2018-06-02T00:00:19.471Z,98.40
2018-06-02T00:02:46.924Z,98.40
2018-06-02T00:05:14.398Z,98.40
2018-06-02T00:07:41.862Z,98.50
2018-06-02T00:10:09.316Z,98.40
2018-06-02T00:12:36.767Z,98.50
2018-06-02T00:15:04.211Z,98.60
2018-06-02T00:17:31.643Z,98.70
2018-06-02T00:19:59.174Z,98.70
2018-06-02T00:22:26.609Z,98.70
2018-06-02T00:24:54.046Z,98.70
2018-06-02T00:27:21.483Z,98.80
2018-06-02T00:29:48.920Z,98.90
2018-06-02T00:32:17.138Z,99.30
2018-06-02T00:34:44.588Z,99.30
2018-06-02T00:37:12.060Z,99.70
2018-06-02T00:39:39.497Z,99.60
2018-06-02T00:42:06.936Z,99.50
2018-06-02T00:44:34.431Z,99.50
2018-06-02T00:47:01.872Z,99.50
2018-06-02T00:49:29.308Z,99.40
2018-06-02T00:51:57.619Z,99.50
2018-06-02T00:54:36.750Z,99.50
2018-06-02T00:57:04.207Z,99.60
2018-06-02T00:59:31.679Z,99.50
2018-06-02T01:01:59.123Z,99.60
2018-06-02T01:04:26.582Z,99.60
2018-06-02T01:06:54.143Z,99.70
2018-06-02T01:09:21.598Z,99.90
2018-06-02T01:11:49.150Z,99.70
2018-06-02T01:14:16.588Z,99.80
2018-06-02T01:16:44.062Z,99.90
2018-06-02T01:19:11.531Z,99.90
2018-06-02T01:21:38.987Z,99.90
2018-06-02T01:24:06.422Z,99.90
2018-06-02T01:26:33.865Z,99.90
2018-06-02T01:29:02.067Z,99.90
2018-06-02T01:31:29.506Z,99.90
2018-06-02T01:33:57.005Z,99.90
2018-06-02T01:36:24.456Z,99.90
2018-06-02T01:38:51.911Z,99.90
2018-06-02T01:41:19.364Z,99.90
2018-06-02T01:43:46.823Z,99.90
2018-06-02T01:46:14.282Z,99.90
2018-06-02T01:48:41.730Z,99.90
2018-06-02T01:51:09.191Z,99.90
2018-06-02T01:53:36.634Z,99.90
2018-06-02T01:56:04.071Z,99.90
2018-06-02T01:58:31.511Z,99.90
2018-06-02T02:00:59.747Z,99.90
2018-06-02T02:03:27.200Z,99.90
2018-06-02T02:05:54.664Z,99.90
2018-06-02T02:08:22.102Z,99.90
2018-06-02T02:10:49.573Z,99.90
2018-06-02T02:13:17.017Z,99.90
2018-06-02T02:15:44.488Z,99.90
2018-06-02T02:18:11.924Z,99.90
2018-06-02T02:20:39.386Z,99.90
2018-06-02T02:23:06.822Z,99.90
2018-06-02T02:25:35.062Z,99.90
2018-06-02T02:28:02.498Z,99.90
2018-06-02T02:30:29.943Z,99.90
2018-06-02T02:32:57.391Z,99.90
2018-06-02T02:35:25.886Z,99.90
2018-06-02T02:37:53.307Z,99.90
2018-06-02T02:40:20.892Z,99.90
2018-06-02T02:42:48.359Z,99.90
2018-06-02T02:45:15.817Z,99.90
2018-06-02T02:47:43.289Z,99.90
2018-06-02T02:50:10.840Z,99.90
2018-06-02T02:52:38.281Z,99.90
2018-06-02T02:55:05.751Z,99.90
2018-06-02T02:57:33.192Z,99.90
2018-06-02T03:00:00.635Z,99.90
2018-06-02T03:02:28.071Z,99.90
2018-06-02T03:04:56.273Z,99.90
2018-06-02T03:07:23.703Z,99.90
2018-06-02T03:09:51.989Z,99.90
2018-06-02T03:12:19.495Z,99.90
2018-06-02T03:14:46.932Z,99.90
2018-06-02T03:17:14.379Z,99.90
2018-06-02T03:19:41.860Z,99.90
2018-06-02T03:22:09.411Z,99.90
2018-06-02T03:24:36.880Z,99.90
2018-06-02T03:27:04.317Z,99.90
2018-06-02T03:29:31.783Z,99.90
2018-06-02T03:31:59.243Z,99.90
2018-06-02T03:34:26.699Z,99.90
2018-06-02T03:36:54.155Z,99.90
2018-06-02T03:39:21.628Z,99.90
2018-06-02T03:41:49.175Z,99.90
2018-06-02T03:44:16.636Z,99.90
2018-06-02T03:46:44.095Z,99.90
2018-06-02T03:49:11.554Z,99.90
2018-06-02T03:51:38.987Z,99.90
2018-06-02T03:54:06.472Z,99.90
2018-06-02T03:56:33.915Z,99.90
2018-06-02T03:59:01.355Z,99.90
2018-06-02T04:01:28.843Z,99.90
2018-06-02T04:03:56.308Z,99.90
2018-06-02T04:06:23.787Z,99.90
2018-06-02T04:08:51.220Z,99.90
2018-06-02T04:11:18.777Z,99.90
2018-06-02T04:13:46.336Z,99.90
2018-06-02T04:16:15.402Z,99.90
2018-06-02T04:18:42.840Z,99.90
2018-06-02T04:21:11.055Z,99.90
2018-06-02T04:23:38.497Z,99.90
2018-06-02T04:26:06.908Z,99.90
2018-06-02T04:28:34.359Z,99.90
2018-06-02T04:31:01.815Z,99.90
2018-06-02T04:33:29.255Z,99.90
2018-06-02T04:35:56.702Z,99.90
2018-06-02T04:38:24.195Z,99.90
2018-06-02T04:40:51.639Z,99.90
2018-06-02T04:43:19.102Z,99.90
2018-06-02T04:45:46.660Z,99.90
2018-06-02T04:48:14.108Z,99.90
2018-06-02T04:50:41.547Z,99.90
2018-06-02T04:53:08.980Z,99.90
2018-06-02T04:55:37.203Z,99.90
2018-06-02T04:58:04.655Z,99.90
2018-06-02T05:00:32.115Z,99.90
2018-06-02T05:02:59.578Z,99.90
2018-06-02T05:05:27.189Z,99.90
2018-06-02T05:07:55.389Z,99.90
2018-06-02T05:10:22.827Z,99.90
2018-06-02T05:12:51.052Z,99.90
2018-06-02T05:15:18.506Z,99.90
2018-06-02T05:17:45.947Z,99.90
2018-06-02T05:20:13.391Z,99.90
2018-06-02T05:22:40.826Z,99.90
2018-06-02T05:25:09.036Z,99.90
2018-06-02T05:27:36.607Z,99.90
2018-06-02T05:30:04.054Z,99.90
2018-06-02T05:32:31.497Z,99.90
2018-06-02T05:34:58.975Z,99.90
2018-06-02T05:37:26.412Z,99.90
2018-06-02T05:39:53.863Z,99.90
2018-06-02T05:42:21.340Z,99.90
2018-06-02T05:44:48.770Z,99.90
2018-06-02T05:47:16.216Z,99.90
2018-06-02T05:49:44.425Z,99.90
2018-06-02T05:52:11.881Z,99.90
2018-06-02T05:54:39.339Z,99.90
2018-06-02T05:57:06.762Z,99.90
2018-06-02T05:59:34.982Z,99.90
2018-06-02T06:02:02.439Z,99.90
2018-06-02T06:04:29.899Z,99.90
2018-06-02T06:06:57.346Z,99.90
2018-06-02T06:09:24.815Z,99.90
2018-06-02T06:11:52.271Z,99.90
2018-06-02T06:14:19.727Z,99.90
2018-06-02T06:16:47.294Z,99.90
2018-06-02T06:19:14.758Z,99.90
2018-06-02T06:21:42.199Z,99.90
2018-06-02T06:24:09.635Z,99.90
2018-06-02T06:26:37.081Z,99.90
2018-06-02T06:29:05.295Z,99.90
2018-06-02T06:31:32.727Z,99.90
2018-06-02T06:34:00.215Z,99.90
2018-06-02T06:36:27.663Z,99.90
2018-06-02T06:38:55.099Z,99.90
2018-06-02T06:41:22.546Z,99.90
2018-06-02T06:43:50.746Z,99.90
2018-06-02T06:46:18.211Z,99.90
2018-06-02T06:48:45.670Z,99.90
2018-06-02T06:51:13.103Z,99.90
2018-06-02T06:53:40.555Z,99.90
2018-06-02T06:56:07.995Z,99.90
2018-06-02T06:58:36.316Z,99.90
2018-06-02T07:01:03.735Z,99.90
2018-06-02T07:03:31.939Z,99.90
2018-06-02T07:05:59.408Z,99.90
2018-06-02T07:08:26.843Z,99.90
2018-06-02T07:10:54.295Z,99.90
2018-06-02T07:13:21.780Z,99.90
2018-06-02T07:15:49.328Z,99.90
2018-06-02T07:18:16.807Z,99.90
2018-06-02T07:20:44.364Z,99.90
2018-06-02T07:23:11.815Z,99.90
2018-06-02T07:25:39.256Z,99.90
2018-06-02T07:28:06.711Z,99.90
2018-06-02T07:30:34.146Z,99.90
2018-06-02T07:33:02.369Z,99.90
2018-06-02T07:35:29.839Z,99.90
2018-06-02T07:37:57.272Z,99.90
2018-06-02T07:40:24.720Z,99.90
2018-06-02T07:42:52.168Z,99.90
2018-06-02T07:45:19.613Z,99.90
2018-06-02T07:47:47.976Z,99.90
2018-06-02T07:50:16.191Z,99.90
2018-06-02T07:52:43.658Z,99.90
2018-06-02T07:55:11.115Z,99.90
2018-06-02T07:57:38.560Z,99.90
2018-06-02T08:00:06.003Z,99.90
2018-06-02T08:02:33.495Z,99.90
2018-06-02T08:05:00.943Z,99.90
2018-06-02T08:07:28.496Z,99.90
2018-06-02T08:09:55.978Z,99.90
2018-06-02T08:12:23.423Z,99.90
2018-06-02T08:14:50.878Z,99.90
2018-06-02T08:17:18.447Z,99.90
2018-06-02T08:19:45.895Z,99.90
2018-06-02T08:22:13.331Z,99.90
2018-06-02T08:24:40.775Z,99.90
2018-06-02T08:27:08.223Z,99.90
2018-06-02T08:29:36.546Z,99.90
2018-06-02T08:32:03.981Z,99.90
2018-06-02T08:34:31.435Z,99.90
2018-06-02T08:36:58.877Z,99.90
2018-06-02T08:39:27.090Z,99.90
2018-06-02T08:41:54.534Z,99.90
2018-06-02T08:44:22.016Z,99.90
2018-06-02T08:46:49.458Z,99.90
2018-06-02T08:49:16.915Z,99.90
2018-06-02T08:51:44.375Z,99.90
2018-06-02T08:54:11.831Z,99.90
2018-06-02T08:56:39.291Z,99.90
2018-06-02T08:59:06.736Z,99.90
2018-06-02T09:01:34.184Z,99.90
2018-06-02T09:04:01.685Z,99.90
2018-06-02T09:06:29.165Z,99.90
2018-06-02T09:08:56.561Z,99.90
2018-06-02T09:11:24.131Z,99.90
2018-06-02T09:13:51.604Z,99.90
2018-06-02T09:16:19.051Z,99.90
2018-06-02T09:18:46.511Z,99.90
2018-06-02T09:21:13.945Z,99.80
2018-06-02T09:23:41.395Z,99.50
2018-06-02T09:26:09.623Z,99.40
2018-06-02T09:28:37.047Z,99.40
2018-06-02T09:31:04.516Z,99.30
2018-06-02T09:33:31.944Z,99.10
2018-06-02T09:35:59.379Z,99.00
2018-06-02T09:38:27.611Z,98.90
2018-06-02T09:40:55.061Z,98.80
2018-06-02T09:43:22.579Z,98.60
2018-06-02T09:45:50.069Z,98.70
2018-06-02T09:48:17.505Z,98.50
2018-06-02T09:50:44.936Z,98.40
2018-06-02T09:53:12.383Z,98.20
2018-06-02T09:55:39.830Z,98.20
2018-06-02T09:58:07.273Z,97.90
2018-06-02T10:00:36.567Z,97.30
2018-06-02T10:03:04.008Z,97.20
2018-06-02T10:05:31.487Z,96.10
2018-06-02T10:07:58.931Z,96.00
2018-06-02T10:10:26.452Z,95.80
2018-06-02T10:12:53.946Z,95.50
2018-06-02T10:15:21.411Z,95.40
2018-06-02T10:17:48.854Z,95.40
2018-06-02T10:20:16.327Z,95.20
2018-06-02T10:22:43.768Z,94.90
2018-06-02T10:25:11.243Z,94.80
2018-06-02T10:27:38.695Z,94.40
2018-06-02T10:30:06.131Z,94.10
2018-06-02T10:32:33.591Z,93.90
2018-06-02T10:35:01.057Z,93.80
2018-06-02T10:37:28.493Z,93.90
2018-06-02T10:39:55.973Z,93.50
2018-06-02T10:42:23.398Z,93.30
2018-06-02T10:44:51.607Z,93.40
2018-06-02T10:47:19.073Z,93.40
2018-06-02T10:49:46.518Z,93.40
2018-06-02T10:52:13.981Z,93.10
2018-06-02T10:54:41.536Z,93.00
2018-06-02T10:57:09.015Z,92.90
2018-06-02T10:59:37.499Z,92.60
2018-06-02T11:02:05.047Z,92.60
2018-06-02T11:04:32.515Z,92.50
2018-06-02T11:06:59.948Z,92.80
2018-06-02T11:09:27.459Z,92.60
2018-06-02T11:11:54.909Z,92.50
2018-06-02T11:14:22.356Z,92.30
2018-06-02T11:16:49.881Z,92.10
2018-06-02T11:19:17.294Z,92.00
2018-06-02T11:21:45.507Z,91.60
2018-06-02T11:24:12.976Z,91.60
2018-06-02T11:26:40.442Z,91.40
2018-06-02T11:29:07.876Z,91.00
2018-06-02T11:31:35.314Z,91.00
2018-06-02T11:34:02.829Z,91.00
2018-06-02T11:36:30.255Z,90.90
2018-06-02T11:38:57.696Z,90.70
2018-06-02T11:41:25.149Z,90.80
2018-06-02T11:43:52.608Z,90.80
2018-06-02T11:46:20.827Z,90.90
2018-06-02T11:48:48.291Z,90.90
2018-06-02T11:51:15.833Z,91.00
2018-06-02T11:53:43.280Z,91.10
2018-06-02T11:56:10.735Z,91.20
2018-06-02T11:58:38.192Z,91.20
2018-06-02T12:01:05.695Z,91.20
2018-06-02T12:03:33.218Z,90.80
2018-06-02T12:06:00.687Z,91.00
2018-06-02T12:08:28.131Z,90.80
2018-06-02T12:10:55.589Z,90.70
2018-06-02T12:13:23.094Z,90.80
2018-06-02T12:15:50.518Z,90.80
2018-06-02T12:18:17.958Z,90.80
2018-06-02T12:20:45.408Z,90.80
2018-06-02T12:23:12.863Z,90.80
2018-06-02T12:25:40.299Z,90.70
2018-06-02T12:28:08.517Z,90.60
2018-06-02T12:30:35.996Z,90.60
2018-06-02T12:33:03.428Z,90.60
2018-06-02T12:35:30.883Z,90.50
2018-06-02T12:37:58.331Z,90.40
2018-06-02T12:40:25.772Z,90.40
2018-06-02T12:42:53.206Z,90.10
2018-06-02T12:45:21.523Z,89.60
2018-06-02T12:47:48.978Z,89.60
2018-06-02T12:50:16.435Z,89.80
2018-06-02T12:52:43.851Z,89.90
2018-06-02T12:55:12.095Z,90.00
2018-06-02T12:57:39.535Z,90.00
2018-06-02T13:00:07.012Z,90.00
2018-06-02T13:02:34.448Z,89.40
2018-06-02T13:05:01.934Z,89.40
2018-06-02T13:07:29.427Z,89.10
2018-06-02T13:09:57.667Z,89.30
2018-06-02T13:12:25.116Z,89.30
2018-06-02T13:14:52.563Z,89.00
2018-06-02T13:17:20.044Z,88.60
2018-06-02T13:19:47.478Z,88.90
2018-06-02T13:22:15.022Z,89.20
2018-06-02T13:24:42.491Z,89.10
2018-06-02T13:27:10.038Z,89.00
2018-06-02T13:29:37.463Z,89.20
2018-06-02T13:32:05.676Z,89.60
2018-06-02T13:34:33.133Z,89.60
2018-06-02T13:37:00.567Z,89.80
2018-06-02T13:39:28.011Z,89.30
2018-06-02T13:41:56.213Z,89.20
2018-06-02T13:44:23.712Z,89.10
2018-06-02T13:46:51.146Z,89.00
2018-06-02T13:49:18.608Z,88.50
2018-06-02T13:51:46.042Z,88.20
2018-06-02T13:54:13.504Z,87.40
2018-06-02T13:56:40.951Z,87.00
2018-06-02T13:59:08.383Z,87.00
2018-06-02T14:01:36.613Z,86.10
2018-06-02T14:04:04.055Z,86.10
2018-06-02T14:06:31.496Z,85.60
2018-06-02T14:08:58.931Z,85.20
2018-06-02T14:11:27.140Z,84.20
2018-06-02T14:13:54.628Z,84.10
2018-06-02T14:16:22.036Z,83.80
2018-06-02T14:18:49.535Z,83.40
2018-06-02T14:21:17.694Z,83.30
2018-06-02T14:23:45.147Z,83.30
2018-06-02T14:26:12.622Z,83.70
2018-06-02T14:28:40.056Z,83.90
2018-06-02T14:31:07.509Z,84.10
2018-06-02T14:33:34.947Z,84.30
2018-06-02T14:36:03.257Z,85.20
2018-06-02T14:38:30.709Z,85.10
2018-06-02T14:40:58.254Z,85.50
2018-06-02T14:43:25.724Z,85.80
2018-06-02T14:45:53.183Z,85.90
2018-06-02T14:48:20.680Z,85.80
2018-06-02T14:50:48.139Z,85.30
2018-06-02T14:53:15.580Z,84.60
2018-06-02T14:55:43.024Z,84.00
2018-06-02T14:58:10.466Z,83.70
2018-06-02T15:00:37.927Z,82.80
2018-06-02T15:03:05.387Z,83.10
2018-06-02T15:05:32.836Z,83.00
2018-06-02T15:08:00.295Z,82.80
2018-06-02T15:10:27.738Z,82.60
2018-06-02T15:12:55.228Z,82.10
2018-06-02T15:15:22.671Z,81.50
2018-06-02T15:17:50.270Z,80.90
2018-06-02T15:20:17.683Z,80.50
2018-06-02T15:22:45.137Z,80.20
2018-06-02T15:25:12.583Z,80.20
2018-06-02T15:27:40.019Z,80.00
2018-06-02T15:30:07.473Z,79.90
2018-06-02T15:32:34.935Z,79.80
2018-06-02T15:35:02.392Z,79.50
2018-06-02T15:37:29.844Z,79.40
2018-06-02T15:39:57.280Z,79.70
2018-06-02T15:42:24.710Z,79.80
2018-06-02T15:44:52.935Z,80.10
2018-06-02T15:47:20.399Z,79.30
2018-06-02T15:49:47.851Z,79.00
2018-06-02T15:52:15.288Z,79.70
2018-06-02T15:54:42.768Z,80.20
2018-06-02T15:57:10.228Z,80.60
2018-06-02T15:59:37.777Z,80.90
2018-06-02T16:02:05.963Z,81.00
2018-06-02T16:04:33.419Z,80.90
2018-06-02T16:07:00.971Z,80.80
2018-06-02T16:09:28.434Z,80.60
2018-06-02T16:11:55.888Z,80.40
2018-06-02T16:14:23.335Z,80.10
2018-06-02T16:16:50.787Z,80.20
2018-06-02T16:19:18.223Z,80.40
2018-06-02T16:21:45.713Z,81.00
2018-06-02T16:24:13.150Z,81.10
2018-06-02T16:26:40.587Z,81.30
2018-06-02T16:29:08.813Z,82.00
2018-06-02T16:31:36.256Z,82.10
2018-06-02T16:34:03.739Z,82.10
2018-06-02T16:36:31.289Z,82.40
2018-06-02T16:38:58.739Z,82.40
2018-06-02T16:41:26.193Z,82.20
2018-06-02T16:43:53.619Z,82.60
2018-06-02T16:46:21.119Z,82.70
2018-06-02T16:48:48.559Z,82.30
2018-06-02T16:51:16.035Z,82.40
2018-06-02T16:53:43.583Z,82.70
2018-06-02T16:56:11.025Z,83.00
2018-06-02T16:58:38.499Z,83.30
2018-06-02T17:01:05.974Z,83.50
2018-06-02T17:03:33.443Z,84.10
2018-06-02T17:06:00.879Z,83.40
2018-06-02T17:08:28.319Z,83.50
2018-06-02T17:10:55.755Z,83.70
2018-06-02T17:13:23.199Z,84.10
2018-06-02T17:15:51.480Z,84.70
2018-06-02T17:18:19.708Z,85.00
2018-06-02T17:20:47.159Z,85.00
2018-06-02T17:23:14.609Z,85.40
2018-06-02T17:25:42.159Z,85.70
2018-06-02T17:28:09.591Z,86.00
2018-06-02T17:30:37.083Z,86.30
2018-06-02T17:33:04.545Z,87.50
2018-06-02T17:35:32.010Z,87.20
2018-06-02T17:37:59.559Z,87.50
2018-06-02T17:40:27.011Z,88.20
2018-06-02T17:42:54.474Z,88.30
2018-06-02T17:45:21.940Z,88.50
2018-06-02T17:47:49.496Z,88.80
2018-06-02T17:50:16.949Z,89.10
2018-06-02T17:52:44.400Z,89.40
2018-06-02T17:55:11.835Z,90.10
2018-06-02T17:57:39.348Z,89.90
2018-06-02T18:00:06.789Z,90.00
2018-06-02T18:02:34.348Z,90.20
2018-06-02T18:05:01.787Z,90.30
2018-06-02T18:07:29.264Z,90.40
2018-06-02T18:09:56.712Z,90.50
2018-06-02T18:12:24.168Z,90.60
2018-06-02T18:14:51.646Z,91.10
2018-06-02T18:17:19.079Z,91.00
2018-06-02T18:19:46.499Z,91.10
2018-06-02T18:22:14.707Z,91.30
2018-06-02T18:24:42.160Z,91.20
2018-06-02T18:27:09.617Z,91.40
2018-06-02T18:29:37.079Z,91.80
2018-06-02T18:32:04.533Z,91.70
2018-06-02T18:34:31.992Z,92.00
2018-06-02T18:36:59.475Z,91.90
2018-06-02T18:39:27.023Z,91.90
2018-06-02T18:41:54.575Z,91.90
2018-06-02T18:44:22.011Z,91.90
2018-06-02T18:46:49.455Z,91.90
2018-06-02T18:49:16.923Z,91.80
2018-06-02T18:51:44.411Z,91.80
2018-06-02T18:54:11.864Z,91.90
2018-06-02T18:56:39.323Z,91.90
2018-06-02T18:59:06.771Z,92.00
2018-06-02T19:01:34.231Z,92.00
2018-06-02T19:04:01.679Z,92.10
2018-06-02T19:06:29.153Z,92.10
2018-06-02T19:08:56.588Z,92.20
2018-06-02T19:11:24.071Z,92.20
2018-06-02T19:13:51.507Z,92.30
2018-06-02T19:16:19.009Z,92.40
2018-06-02T19:18:46.447Z,92.40
2018-06-02T19:21:13.880Z,92.50
2018-06-02T19:23:41.338Z,92.50
2018-06-02T19:26:08.771Z,92.60
2018-06-02T19:28:36.204Z,92.70
2018-06-02T19:31:03.747Z,92.70
2018-06-02T19:33:31.287Z,92.80
2018-06-02T19:35:58.737Z,92.80
2018-06-02T19:38:26.202Z,92.90
2018-06-02T19:40:53.666Z,93.00
2018-06-02T19:43:21.884Z,93.10
2018-06-02T19:45:49.343Z,93.10
2018-06-02T19:48:16.845Z,93.20
2018-06-02T19:50:44.259Z,93.20
2018-06-02T19:53:11.707Z,93.30
2018-06-02T19:55:39.276Z,93.30
2018-06-02T19:58:06.723Z,93.40
2018-06-02T20:00:34.170Z,93.50
2018-06-02T20:03:01.626Z,93.50
2018-06-02T20:05:29.102Z,93.60
2018-06-02T20:07:56.584Z,93.70
2018-06-02T20:10:24.790Z,93.80
2018-06-02T20:12:52.232Z,93.80
2018-06-02T20:15:19.679Z,93.90
2018-06-02T20:17:47.128Z,93.90
2018-06-02T20:20:14.622Z,94.10
2018-06-02T20:22:42.262Z,94.10
2018-06-02T20:25:09.675Z,94.10
2018-06-02T20:27:37.886Z,94.10
2018-06-02T20:30:05.323Z,94.10
2018-06-02T20:32:32.817Z,94.10
2018-06-02T20:35:00.278Z,94.20
2018-06-02T20:37:27.741Z,94.20
2018-06-02T20:39:55.171Z,94.20
2018-06-02T20:42:22.637Z,94.30
2018-06-02T20:44:50.078Z,94.40
2018-06-02T20:47:17.574Z,94.40
2018-06-02T20:49:45.032Z,94.40
2018-06-02T20:52:12.471Z,94.40
2018-06-02T20:54:39.931Z,94.50
2018-06-02T20:57:07.384Z,94.50
2018-06-02T20:59:34.863Z,94.60
2018-06-02T21:02:02.311Z,94.60
2018-06-02T21:04:29.842Z,94.70
2018-06-02T21:06:57.334Z,94.70
2018-06-02T21:09:24.862Z,95.10
2018-06-02T21:11:52.287Z,95.10
2018-06-02T21:14:19.765Z,95.50
2018-06-02T21:16:47.986Z,95.40
2018-06-02T21:19:15.425Z,95.40
2018-06-02T21:21:42.862Z,95.40
2018-06-02T21:24:10.350Z,95.40
2018-06-02T21:26:37.805Z,95.30
2018-06-02T21:29:05.254Z,95.30
2018-06-02T21:31:32.835Z,95.40
2018-06-02T21:34:00.289Z,95.50
2018-06-02T21:36:27.756Z,95.60
2018-06-02T21:38:55.203Z,95.70
2018-06-02T21:41:22.749Z,95.80
2018-06-02T21:43:50.179Z,95.90
2018-06-02T21:46:18.384Z,96.00
2018-06-02T21:48:45.828Z,96.00
2018-06-02T21:51:13.299Z,96.00
2018-06-02T21:53:40.727Z,96.10
2018-06-02T21:56:09.039Z,96.20
2018-06-02T21:58:36.486Z,96.20
2018-06-02T22:01:03.918Z,96.30
2018-06-02T22:03:32.136Z,96.80
2018-06-02T22:05:59.680Z,96.80
2018-06-02T22:08:27.148Z,96.90
2018-06-02T22:10:54.614Z,97.00
2018-06-02T22:13:22.059Z,97.10
2018-06-02T22:15:49.529Z,97.20
2018-06-02T22:18:16.955Z,97.30
2018-06-02T22:20:44.443Z,97.30
2018-06-02T22:23:11.894Z,97.30
2018-06-02T22:25:39.339Z,97.50
2018-06-02T22:28:07.023Z,97.60
2018-06-02T22:30:34.559Z,97.60
2018-06-02T22:33:01.991Z,97.50
2018-06-02T22:35:29.431Z,97.50
2018-06-02T22:37:56.877Z,97.50
2018-06-02T22:40:25.099Z,97.60
2018-06-02T22:42:52.579Z,97.60
2018-06-02T22:45:20.053Z,97.70
2018-06-02T22:47:47.487Z,97.70
2018-06-02T22:50:14.927Z,97.80
2018-06-02T22:52:42.497Z,97.80
2018-06-02T22:55:09.943Z,97.90
2018-06-02T22:57:37.391Z,98.20
2018-06-02T23:00:04.859Z,98.30
2018-06-02T23:02:32.349Z,98.40
2018-06-02T23:04:59.811Z,98.40
2018-06-02T23:07:27.230Z,98.50
2018-06-02T23:09:54.783Z,98.50
2018-06-02T23:12:22.213Z,98.60
2018-06-02T23:14:49.643Z,98.60
2018-06-02T23:17:17.094Z,98.60
2018-06-02T23:19:44.536Z,98.60
2018-06-02T23:22:33.515Z,98.70
2018-06-02T23:25:01.217Z,98.80
2018-06-02T23:27:29.475Z,98.90
2018-06-02T23:29:57.699Z,99.00
2018-06-02T23:32:26.139Z,99.00
2018-06-02T23:34:53.650Z,99.10
2018-06-02T23:37:21.098Z,99.10
2018-06-02T23:39:48.547Z,99.20
2018-06-02T23:42:16.011Z,99.20
2018-06-02T23:44:43.466Z,99.40
2018-06-02T23:47:11.013Z,99.50
2018-06-02T23:49:38.484Z,99.90
2018-06-02T23:52:05.943Z,99.90
2018-06-02T23:54:33.401Z,99.90
2018-06-02T23:57:00.839Z,99.90
2018-06-02T23:59:28.402Z,99.90
